sensor_id;sensor_type;location;lat;lon;timestamp;P1;durP1;ratioP1;P2;durP2;ratioP2
48002;SDS011;33768;48.578;11.574;2024-03-08T00:01:08;19.23;;;12.10;;
48002;SDS011;33768;48.578;11.574;2024-03-08T00:04:12;22.47;;;13.00;;
48002;SDS011;33768;48.578;11.574;2024-03-08T00:07:16;22.43;;;12.53;;
48002;SDS011;33768;48.578;11.574;2024-03-08T00:10:21;22.83;;;13.40;;
48002;SDS011;33768;48.578;11.574;2024-03-08T00:13:25;23.43;;;12.97;;
48002;SDS011;33768;48.578;11.574;2024-03-08T00:16:29;25.30;;;13.60;;
48002;SDS011;33768;48.578;11.574;2024-03-08T00:19:34;20.70;;;12.63;;
48002;SDS011;33768;48.578;11.574;2024-03-08T00:22:38;22.30;;;13.13;;
48002;SDS011;33768;48.578;11.574;2024-03-08T00:25:42;22.87;;;13.20;;
48002;SDS011;33768;48.578;11.574;2024-03-08T00:28:46;20.63;;;12.97;;
48002;SDS011;33768;48.578;11.574;2024-03-08T00:31:50;22.07;;;13.40;;
48002;SDS011;33768;48.578;11.574;2024-03-08T00:34:54;23.77;;;13.23;;
48002;SDS011;33768;48.578;11.574;2024-03-08T00:37:58;21.80;;;13.03;;
48002;SDS011;33768;48.578;11.574;2024-03-08T00:41:03;23.03;;;12.87;;
48002;SDS011;33768;48.578;11.574;2024-03-08T00:44:07;23.57;;;12.10;;
48002;SDS011;33768;48.578;11.574;2024-03-08T00:47:11;23.73;;;13.40;;
48002;SDS011;33768;48.578;11.574;2024-03-08T00:50:15;23.07;;;13.80;;
48002;SDS011;33768;48.578;11.574;2024-03-08T00:53:19;22.63;;;13.73;;
48002;SDS011;33768;48.578;11.574;2024-03-08T00:56:23;25.03;;;12.60;;
48002;SDS011;33768;48.578;11.574;2024-03-08T00:59:29;23.40;;;14.27;;
48002;SDS011;33768;48.578;11.574;2024-03-08T01:02:35;21.57;;;12.67;;
48002;SDS011;33768;48.578;11.574;2024-03-08T01:05:39;22.07;;;12.73;;
48002;SDS011;33768;48.578;11.574;2024-03-08T01:08:43;19.03;;;11.97;;
48002;SDS011;33768;48.578;11.574;2024-03-08T01:11:47;20.73;;;13.23;;
48002;SDS011;33768;48.578;11.574;2024-03-08T01:14:51;20.73;;;12.90;;
48002;SDS011;33768;48.578;11.574;2024-03-08T01:17:55;24.40;;;13.60;;
48002;SDS011;33768;48.578;11.574;2024-03-08T01:21:00;25.60;;;14.23;;
48002;SDS011;33768;48.578;11.574;2024-03-08T01:24:04;24.47;;;13.83;;
48002;SDS011;33768;48.578;11.574;2024-03-08T01:27:08;24.30;;;14.10;;
48002;SDS011;33768;48.578;11.574;2024-03-08T01:30:12;24.80;;;14.93;;
48002;SDS011;33768;48.578;11.574;2024-03-08T01:33:16;25.33;;;13.60;;
48002;SDS011;33768;48.578;11.574;2024-03-08T01:36:21;26.00;;;14.17;;
48002;SDS011;33768;48.578;11.574;2024-03-08T01:39:25;24.93;;;13.97;;
48002;SDS011;33768;48.578;11.574;2024-03-08T01:42:29;21.30;;;13.07;;
48002;SDS011;33768;48.578;11.574;2024-03-08T01:45:33;26.33;;;14.27;;
48002;SDS011;33768;48.578;11.574;2024-03-08T01:48:38;23.27;;;14.23;;
48002;SDS011;33768;48.578;11.574;2024-03-08T01:51:44;21.53;;;13.40;;
48002;SDS011;33768;48.578;11.574;2024-03-08T01:54:48;22.63;;;13.27;;
48002;SDS011;33768;48.578;11.574;2024-03-08T01:57:54;23.37;;;13.90;;
48002;SDS011;33768;48.578;11.574;2024-03-08T02:00:59;23.40;;;14.13;;
48002;SDS011;33768;48.578;11.574;2024-03-08T02:04:03;23.80;;;14.27;;
48002;SDS011;33768;48.578;11.574;2024-03-08T02:07:10;24.67;;;14.43;;
48002;SDS011;33768;48.578;11.574;2024-03-08T02:10:14;24.67;;;14.20;;
48002;SDS011;33768;48.578;11.574;2024-03-08T02:13:19;21.83;;;13.80;;
48002;SDS011;33768;48.578;11.574;2024-03-08T02:16:23;25.40;;;13.87;;
48002;SDS011;33768;48.578;11.574;2024-03-08T02:19:27;24.10;;;14.57;;
48002;SDS011;33768;48.578;11.574;2024-03-08T02:22:31;23.07;;;13.63;;
48002;SDS011;33768;48.578;11.574;2024-03-08T02:25:36;26.17;;;14.20;;
48002;SDS011;33768;48.578;11.574;2024-03-08T02:28:40;24.53;;;14.80;;
48002;SDS011;33768;48.578;11.574;2024-03-08T02:31:47;23.63;;;14.17;;
48002;SDS011;33768;48.578;11.574;2024-03-08T02:34:51;26.73;;;14.37;;
48002;SDS011;33768;48.578;11.574;2024-03-08T02:38:00;26.00;;;14.67;;
48002;SDS011;33768;48.578;11.574;2024-03-08T02:41:04;26.80;;;14.97;;
48002;SDS011;33768;48.578;11.574;2024-03-08T02:44:08;24.67;;;15.53;;
48002;SDS011;33768;48.578;11.574;2024-03-08T02:47:13;27.47;;;15.67;;
48002;SDS011;33768;48.578;11.574;2024-03-08T02:50:17;30.53;;;15.47;;
48002;SDS011;33768;48.578;11.574;2024-03-08T02:53:21;27.97;;;15.93;;
48002;SDS011;33768;48.578;11.574;2024-03-08T02:56:25;27.20;;;15.30;;
48002;SDS011;33768;48.578;11.574;2024-03-08T02:59:30;30.40;;;15.40;;
48002;SDS011;33768;48.578;11.574;2024-03-08T03:02:34;27.47;;;14.03;;
48002;SDS011;33768;48.578;11.574;2024-03-08T03:05:39;23.60;;;15.17;;
48002;SDS011;33768;48.578;11.574;2024-03-08T03:08:45;27.77;;;15.70;;
48002;SDS011;33768;48.578;11.574;2024-03-08T03:11:49;27.50;;;15.67;;
48002;SDS011;33768;48.578;11.574;2024-03-08T03:14:53;28.37;;;16.90;;
48002;SDS011;33768;48.578;11.574;2024-03-08T03:17:57;25.57;;;16.20;;
48002;SDS011;33768;48.578;11.574;2024-03-08T03:21:01;27.20;;;16.57;;
48002;SDS011;33768;48.578;11.574;2024-03-08T03:24:11;28.33;;;16.43;;
48002;SDS011;33768;48.578;11.574;2024-03-08T03:27:15;27.93;;;16.70;;
48002;SDS011;33768;48.578;11.574;2024-03-08T03:30:19;25.87;;;15.43;;
48002;SDS011;33768;48.578;11.574;2024-03-08T03:33:26;28.43;;;16.20;;
48002;SDS011;33768;48.578;11.574;2024-03-08T03:36:31;30.50;;;17.47;;
48002;SDS011;33768;48.578;11.574;2024-03-08T03:39:35;28.77;;;16.20;;
48002;SDS011;33768;48.578;11.574;2024-03-08T03:42:44;32.33;;;17.33;;
48002;SDS011;33768;48.578;11.574;2024-03-08T03:45:49;30.23;;;18.03;;
48002;SDS011;33768;48.578;11.574;2024-03-08T03:48:54;32.13;;;16.37;;
48002;SDS011;33768;48.578;11.574;2024-03-08T03:51:59;28.83;;;17.07;;
48002;SDS011;33768;48.578;11.574;2024-03-08T03:55:04;30.13;;;16.40;;
48002;SDS011;33768;48.578;11.574;2024-03-08T03:58:08;31.73;;;17.63;;
48002;SDS011;33768;48.578;11.574;2024-03-08T04:01:13;34.17;;;18.77;;
48002;SDS011;33768;48.578;11.574;2024-03-08T04:04:18;35.87;;;18.60;;
48002;SDS011;33768;48.578;11.574;2024-03-08T04:07:22;34.27;;;18.10;;
48002;SDS011;33768;48.578;11.574;2024-03-08T04:10:26;34.07;;;17.47;;
48002;SDS011;33768;48.578;11.574;2024-03-08T04:13:30;31.17;;;18.20;;
48002;SDS011;33768;48.578;11.574;2024-03-08T04:16:34;34.37;;;18.97;;
48002;SDS011;33768;48.578;11.574;2024-03-08T04:19:38;31.93;;;17.70;;
48002;SDS011;33768;48.578;11.574;2024-03-08T04:22:43;37.17;;;19.17;;
48002;SDS011;33768;48.578;11.574;2024-03-08T04:25:48;31.30;;;17.13;;
48002;SDS011;33768;48.578;11.574;2024-03-08T04:28:52;33.33;;;18.53;;
48002;SDS011;33768;48.578;11.574;2024-03-08T04:31:56;34.03;;;18.97;;
48002;SDS011;33768;48.578;11.574;2024-03-08T04:35:01;31.57;;;18.20;;
48002;SDS011;33768;48.578;11.574;2024-03-08T04:38:05;35.47;;;17.83;;
48002;SDS011;33768;48.578;11.574;2024-03-08T04:41:09;31.50;;;18.73;;
48002;SDS011;33768;48.578;11.574;2024-03-08T04:44:13;34.33;;;17.37;;
48002;SDS011;33768;48.578;11.574;2024-03-08T04:47:18;35.53;;;17.33;;
48002;SDS011;33768;48.578;11.574;2024-03-08T04:50:22;35.40;;;19.00;;
48002;SDS011;33768;48.578;11.574;2024-03-08T04:53:27;31.17;;;17.57;;
48002;SDS011;33768;48.578;11.574;2024-03-08T04:56:31;35.43;;;19.43;;
48002;SDS011;33768;48.578;11.574;2024-03-08T04:59:35;38.23;;;19.23;;
48002;SDS011;33768;48.578;11.574;2024-03-08T05:02:39;34.07;;;18.33;;
48002;SDS011;33768;48.578;11.574;2024-03-08T05:05:45;35.97;;;19.67;;
48002;SDS011;33768;48.578;11.574;2024-03-08T05:08:50;38.20;;;19.17;;
48002;SDS011;33768;48.578;11.574;2024-03-08T05:11:54;32.53;;;19.20;;
48002;SDS011;33768;48.578;11.574;2024-03-08T05:14:58;34.50;;;18.70;;
48002;SDS011;33768;48.578;11.574;2024-03-08T05:18:02;37.40;;;19.27;;
48002;SDS011;33768;48.578;11.574;2024-03-08T05:21:06;38.10;;;19.90;;
48002;SDS011;33768;48.578;11.574;2024-03-08T05:24:11;37.33;;;20.47;;
48002;SDS011;33768;48.578;11.574;2024-03-08T05:27:15;39.30;;;20.63;;
48002;SDS011;33768;48.578;11.574;2024-03-08T05:30:20;39.03;;;19.57;;
48002;SDS011;33768;48.578;11.574;2024-03-08T05:33:25;41.27;;;21.47;;
48002;SDS011;33768;48.578;11.574;2024-03-08T05:36:29;39.27;;;20.07;;
48002;SDS011;33768;48.578;11.574;2024-03-08T05:39:34;40.93;;;19.73;;
48002;SDS011;33768;48.578;11.574;2024-03-08T05:42:38;39.80;;;20.27;;
48002;SDS011;33768;48.578;11.574;2024-03-08T05:45:42;41.20;;;20.43;;
48002;SDS011;33768;48.578;11.574;2024-03-08T05:48:46;44.77;;;20.27;;
48002;SDS011;33768;48.578;11.574;2024-03-08T05:51:50;41.00;;;20.10;;
48002;SDS011;33768;48.578;11.574;2024-03-08T05:54:55;44.80;;;21.57;;
48002;SDS011;33768;48.578;11.574;2024-03-08T05:57:59;40.07;;;20.40;;
48002;SDS011;33768;48.578;11.574;2024-03-08T06:01:05;42.10;;;21.13;;
48002;SDS011;33768;48.578;11.574;2024-03-08T06:04:14;43.77;;;21.63;;
48002;SDS011;33768;48.578;11.574;2024-03-08T06:07:18;42.97;;;22.83;;
48002;SDS011;33768;48.578;11.574;2024-03-08T06:10:24;40.23;;;21.07;;
48002;SDS011;33768;48.578;11.574;2024-03-08T06:13:29;41.70;;;21.80;;
48002;SDS011;33768;48.578;11.574;2024-03-08T06:16:34;41.47;;;21.97;;
48002;SDS011;33768;48.578;11.574;2024-03-08T06:19:39;44.80;;;21.60;;
48002;SDS011;33768;48.578;11.574;2024-03-08T06:22:46;40.73;;;20.30;;
48002;SDS011;33768;48.578;11.574;2024-03-08T06:25:50;43.47;;;21.57;;
48002;SDS011;33768;48.578;11.574;2024-03-08T06:28:54;43.77;;;22.60;;
48002;SDS011;33768;48.578;11.574;2024-03-08T06:31:59;45.03;;;22.30;;
48002;SDS011;33768;48.578;11.574;2024-03-08T06:35:04;43.53;;;22.43;;
48002;SDS011;33768;48.578;11.574;2024-03-08T06:38:10;42.87;;;22.83;;
48002;SDS011;33768;48.578;11.574;2024-03-08T06:41:15;43.87;;;22.80;;
48002;SDS011;33768;48.578;11.574;2024-03-08T06:44:19;45.50;;;22.53;;
48002;SDS011;33768;48.578;11.574;2024-03-08T06:47:25;39.70;;;21.43;;
48002;SDS011;33768;48.578;11.574;2024-03-08T06:50:29;44.07;;;22.33;;
48002;SDS011;33768;48.578;11.574;2024-03-08T06:53:36;39.87;;;22.87;;
48002;SDS011;33768;48.578;11.574;2024-03-08T06:56:41;47.00;;;23.10;;
48002;SDS011;33768;48.578;11.574;2024-03-08T06:59:45;42.40;;;22.37;;
48002;SDS011;33768;48.578;11.574;2024-03-08T07:02:49;41.53;;;21.87;;
48002;SDS011;33768;48.578;11.574;2024-03-08T07:05:53;43.30;;;22.50;;
48002;SDS011;33768;48.578;11.574;2024-03-08T07:08:58;42.33;;;22.17;;
48002;SDS011;33768;48.578;11.574;2024-03-08T07:12:03;45.43;;;23.37;;
48002;SDS011;33768;48.578;11.574;2024-03-08T07:15:07;39.97;;;21.67;;
48002;SDS011;33768;48.578;11.574;2024-03-08T07:18:11;45.17;;;22.87;;
48002;SDS011;33768;48.578;11.574;2024-03-08T07:21:18;41.37;;;21.57;;
48002;SDS011;33768;48.578;11.574;2024-03-08T07:24:23;39.80;;;21.83;;
48002;SDS011;33768;48.578;11.574;2024-03-08T07:27:43;38.70;;;21.10;;
48002;SDS011;33768;48.578;11.574;2024-03-08T07:30:48;37.80;;;20.97;;
48002;SDS011;33768;48.578;11.574;2024-03-08T07:33:52;37.17;;;20.60;;
48002;SDS011;33768;48.578;11.574;2024-03-08T07:36:56;44.67;;;21.83;;
48002;SDS011;33768;48.578;11.574;2024-03-08T07:40:01;37.07;;;21.23;;
48002;SDS011;33768;48.578;11.574;2024-03-08T07:43:06;38.97;;;21.57;;
48002;SDS011;33768;48.578;11.574;2024-03-08T07:46:10;44.00;;;21.03;;
48002;SDS011;33768;48.578;11.574;2024-03-08T07:49:14;38.00;;;21.53;;
48002;SDS011;33768;48.578;11.574;2024-03-08T07:52:19;38.20;;;20.87;;
48002;SDS011;33768;48.578;11.574;2024-03-08T07:55:23;39.47;;;21.10;;
48002;SDS011;33768;48.578;11.574;2024-03-08T07:58:27;40.67;;;21.43;;
48002;SDS011;33768;48.578;11.574;2024-03-08T08:01:33;39.63;;;21.27;;
48002;SDS011;33768;48.578;11.574;2024-03-08T08:04:37;38.30;;;20.87;;
48002;SDS011;33768;48.578;11.574;2024-03-08T08:07:43;45.77;;;23.63;;
48002;SDS011;33768;48.578;11.574;2024-03-08T08:10:48;38.40;;;21.50;;
48002;SDS011;33768;48.578;11.574;2024-03-08T08:13:53;36.90;;;21.40;;
48002;SDS011;33768;48.578;11.574;2024-03-08T08:16:58;36.53;;;21.03;;
48002;SDS011;33768;48.578;11.574;2024-03-08T08:20:07;37.27;;;20.23;;
48002;SDS011;33768;48.578;11.574;2024-03-08T08:23:13;37.93;;;20.63;;
48002;SDS011;33768;48.578;11.574;2024-03-08T08:26:17;35.17;;;20.27;;
48002;SDS011;33768;48.578;11.574;2024-03-08T08:29:22;35.33;;;18.87;;
48002;SDS011;33768;48.578;11.574;2024-03-08T08:32:26;35.40;;;20.83;;
48002;SDS011;33768;48.578;11.574;2024-03-08T08:35:30;32.03;;;18.33;;
48002;SDS011;33768;48.578;11.574;2024-03-08T08:38:35;32.33;;;18.33;;
48002;SDS011;33768;48.578;11.574;2024-03-08T08:41:42;42.63;;;19.93;;
48002;SDS011;33768;48.578;11.574;2024-03-08T08:44:46;33.80;;;19.57;;
48002;SDS011;33768;48.578;11.574;2024-03-08T08:47:51;30.70;;;18.60;;
48002;SDS011;33768;48.578;11.574;2024-03-08T08:50:55;33.10;;;19.30;;
48002;SDS011;33768;48.578;11.574;2024-03-08T08:54:00;29.83;;;17.33;;
48002;SDS011;33768;48.578;11.574;2024-03-08T08:57:04;29.80;;;17.90;;
48002;SDS011;33768;48.578;11.574;2024-03-08T09:00:11;28.77;;;16.90;;
48002;SDS011;33768;48.578;11.574;2024-03-08T09:03:18;30.17;;;18.50;;
48002;SDS011;33768;48.578;11.574;2024-03-08T09:06:23;28.17;;;17.67;;
48002;SDS011;33768;48.578;11.574;2024-03-08T09:09:28;33.20;;;18.13;;
48002;SDS011;33768;48.578;11.574;2024-03-08T09:12:33;26.23;;;16.47;;
48002;SDS011;33768;48.578;11.574;2024-03-08T09:15:37;27.30;;;16.47;;
48002;SDS011;33768;48.578;11.574;2024-03-08T09:18:44;28.73;;;17.43;;
48002;SDS011;33768;48.578;11.574;2024-03-08T09:21:49;30.37;;;17.83;;
48002;SDS011;33768;48.578;11.574;2024-03-08T09:24:53;25.37;;;15.63;;
48002;SDS011;33768;48.578;11.574;2024-03-08T09:27:57;28.90;;;15.97;;
48002;SDS011;33768;48.578;11.574;2024-03-08T09:31:02;24.10;;;15.10;;
48002;SDS011;33768;48.578;11.574;2024-03-08T09:34:06;23.80;;;15.60;;
48002;SDS011;33768;48.578;11.574;2024-03-08T09:37:12;24.87;;;16.33;;
48002;SDS011;33768;48.578;11.574;2024-03-08T09:40:16;28.60;;;16.03;;
48002;SDS011;33768;48.578;11.574;2024-03-08T09:43:23;25.07;;;15.37;;
48002;SDS011;33768;48.578;11.574;2024-03-08T09:46:28;24.00;;;14.70;;
48002;SDS011;33768;48.578;11.574;2024-03-08T09:49:32;23.03;;;15.40;;
48002;SDS011;33768;48.578;11.574;2024-03-08T09:52:36;22.17;;;14.27;;
48002;SDS011;33768;48.578;11.574;2024-03-08T09:55:41;23.67;;;14.53;;
48002;SDS011;33768;48.578;11.574;2024-03-08T09:58:48;25.63;;;16.03;;
48002;SDS011;33768;48.578;11.574;2024-03-08T10:02:12;24.87;;;14.97;;
48002;SDS011;33768;48.578;11.574;2024-03-08T10:05:18;22.80;;;14.63;;
48002;SDS011;33768;48.578;11.574;2024-03-08T10:08:23;22.50;;;14.30;;
48002;SDS011;33768;48.578;11.574;2024-03-08T10:11:27;22.53;;;14.10;;
48002;SDS011;33768;48.578;11.574;2024-03-08T10:14:31;25.93;;;15.13;;
48002;SDS011;33768;48.578;11.574;2024-03-08T10:17:36;24.90;;;15.20;;
48002;SDS011;33768;48.578;11.574;2024-03-08T10:20:40;29.80;;;15.20;;
48002;SDS011;33768;48.578;11.574;2024-03-08T10:23:46;23.10;;;14.33;;
48002;SDS011;33768;48.578;11.574;2024-03-08T10:26:52;24.87;;;15.13;;
48002;SDS011;33768;48.578;11.574;2024-03-08T10:29:58;22.80;;;14.40;;
48002;SDS011;33768;48.578;11.574;2024-03-08T10:33:03;24.53;;;14.80;;
48002;SDS011;33768;48.578;11.574;2024-03-08T10:36:10;22.30;;;13.67;;
48002;SDS011;33768;48.578;11.574;2024-03-08T10:39:21;23.77;;;15.07;;
48002;SDS011;33768;48.578;11.574;2024-03-08T10:42:28;23.60;;;14.87;;
48002;SDS011;33768;48.578;11.574;2024-03-08T10:45:39;23.17;;;13.90;;
48002;SDS011;33768;48.578;11.574;2024-03-08T10:48:46;20.57;;;13.40;;
48002;SDS011;33768;48.578;11.574;2024-03-08T10:51:53;20.67;;;12.47;;
48002;SDS011;33768;48.578;11.574;2024-03-08T10:54:58;21.97;;;14.37;;
48002;SDS011;33768;48.578;11.574;2024-03-08T10:58:04;22.60;;;13.87;;
48002;SDS011;33768;48.578;11.574;2024-03-08T11:01:08;21.40;;;13.50;;
48002;SDS011;33768;48.578;11.574;2024-03-08T11:04:13;21.10;;;13.67;;
48002;SDS011;33768;48.578;11.574;2024-03-08T11:07:19;20.80;;;13.43;;
48002;SDS011;33768;48.578;11.574;2024-03-08T11:10:23;19.37;;;12.47;;
48002;SDS011;33768;48.578;11.574;2024-03-08T11:13:35;19.23;;;12.87;;
48002;SDS011;33768;48.578;11.574;2024-03-08T11:16:40;19.10;;;12.03;;
48002;SDS011;33768;48.578;11.574;2024-03-08T11:19:48;19.50;;;13.17;;
48002;SDS011;33768;48.578;11.574;2024-03-08T11:22:53;23.23;;;13.67;;
48002;SDS011;33768;48.578;11.574;2024-03-08T11:25:59;20.10;;;13.07;;
48002;SDS011;33768;48.578;11.574;2024-03-08T11:32:37;19.30;;;12.00;;
48002;SDS011;33768;48.578;11.574;2024-03-08T11:35:42;18.93;;;12.33;;
48002;SDS011;33768;48.578;11.574;2024-03-08T11:38:49;16.53;;;11.50;;
48002;SDS011;33768;48.578;11.574;2024-03-08T11:41:56;19.53;;;11.60;;
48002;SDS011;33768;48.578;11.574;2024-03-08T11:45:00;17.63;;;11.37;;
48002;SDS011;33768;48.578;11.574;2024-03-08T11:48:08;16.83;;;11.57;;
48002;SDS011;33768;48.578;11.574;2024-03-08T11:51:13;17.27;;;10.80;;
48002;SDS011;33768;48.578;11.574;2024-03-08T11:54:19;17.77;;;11.27;;
48002;SDS011;33768;48.578;11.574;2024-03-08T11:57:25;19.07;;;11.27;;
48002;SDS011;33768;48.578;11.574;2024-03-08T12:00:30;18.70;;;10.90;;
48002;SDS011;33768;48.578;11.574;2024-03-08T12:03:52;16.80;;;11.13;;
48002;SDS011;33768;48.578;11.574;2024-03-08T12:07:01;17.43;;;10.93;;
48002;SDS011;33768;48.578;11.574;2024-03-08T12:10:21;18.47;;;11.03;;
48002;SDS011;33768;48.578;11.574;2024-03-08T12:13:26;14.40;;;9.83;;
48002;SDS011;33768;48.578;11.574;2024-03-08T12:16:36;16.20;;;10.50;;
48002;SDS011;33768;48.578;11.574;2024-03-08T12:19:45;13.27;;;9.23;;
48002;SDS011;33768;48.578;11.574;2024-03-08T12:22:50;13.27;;;8.93;;
48002;SDS011;33768;48.578;11.574;2024-03-08T12:26:15;13.27;;;9.53;;
48002;SDS011;33768;48.578;11.574;2024-03-08T12:29:24;15.33;;;9.77;;
48002;SDS011;33768;48.578;11.574;2024-03-08T12:32:30;12.67;;;8.80;;
48002;SDS011;33768;48.578;11.574;2024-03-08T12:35:35;14.40;;;9.70;;
48002;SDS011;33768;48.578;11.574;2024-03-08T12:38:43;15.70;;;9.73;;
48002;SDS011;33768;48.578;11.574;2024-03-08T12:41:48;12.77;;;8.70;;
48002;SDS011;33768;48.578;11.574;2024-03-08T12:44:55;14.17;;;9.30;;
48002;SDS011;33768;48.578;11.574;2024-03-08T12:47:59;16.80;;;9.57;;
48002;SDS011;33768;48.578;11.574;2024-03-08T12:51:03;14.43;;;10.10;;
48002;SDS011;33768;48.578;11.574;2024-03-08T12:54:09;14.77;;;9.90;;
48002;SDS011;33768;48.578;11.574;2024-03-08T12:57:14;15.53;;;9.73;;
48002;SDS011;33768;48.578;11.574;2024-03-08T13:00:18;15.60;;;10.10;;
48002;SDS011;33768;48.578;11.574;2024-03-08T13:03:26;14.50;;;10.33;;
48002;SDS011;33768;48.578;11.574;2024-03-08T13:06:32;15.47;;;10.20;;
48002;SDS011;33768;48.578;11.574;2024-03-08T13:09:37;13.67;;;9.87;;
48002;SDS011;33768;48.578;11.574;2024-03-08T13:12:41;13.50;;;9.20;;
48002;SDS011;33768;48.578;11.574;2024-03-08T13:15:48;15.80;;;8.17;;
48002;SDS011;33768;48.578;11.574;2024-03-08T13:18:53;12.97;;;9.20;;
48002;SDS011;33768;48.578;11.574;2024-03-08T13:21:57;12.90;;;8.43;;
48002;SDS011;33768;48.578;11.574;2024-03-08T13:25:01;13.10;;;8.63;;
48002;SDS011;33768;48.578;11.574;2024-03-08T13:28:06;12.43;;;8.73;;
48002;SDS011;33768;48.578;11.574;2024-03-08T13:31:10;12.17;;;8.93;;
48002;SDS011;33768;48.578;11.574;2024-03-08T13:34:14;14.07;;;8.33;;
48002;SDS011;33768;48.578;11.574;2024-03-08T13:37:19;12.20;;;7.47;;
48002;SDS011;33768;48.578;11.574;2024-03-08T13:40:23;11.50;;;7.83;;
48002;SDS011;33768;48.578;11.574;2024-03-08T13:43:28;11.53;;;7.37;;
48002;SDS011;33768;48.578;11.574;2024-03-08T13:46:32;11.13;;;7.33;;
48002;SDS011;33768;48.578;11.574;2024-03-08T13:49:36;12.07;;;7.93;;
48002;SDS011;33768;48.578;11.574;2024-03-08T13:52:40;13.13;;;8.60;;
48002;SDS011;33768;48.578;11.574;2024-03-08T13:55:44;12.03;;;8.73;;
48002;SDS011;33768;48.578;11.574;2024-03-08T13:58:49;14.77;;;8.03;;
48002;SDS011;33768;48.578;11.574;2024-03-08T14:01:53;14.13;;;8.13;;
48002;SDS011;33768;48.578;11.574;2024-03-08T14:04:58;11.57;;;8.50;;
48002;SDS011;33768;48.578;11.574;2024-03-08T14:08:08;16.10;;;8.80;;
48002;SDS011;33768;48.578;11.574;2024-03-08T14:11:12;14.00;;;9.07;;
48002;SDS011;33768;48.578;11.574;2024-03-08T14:14:17;12.67;;;7.80;;
48002;SDS011;33768;48.578;11.574;2024-03-08T14:17:21;13.57;;;7.73;;
48002;SDS011;33768;48.578;11.574;2024-03-08T14:20:27;11.77;;;7.47;;
48002;SDS011;33768;48.578;11.574;2024-03-08T14:23:31;10.67;;;7.43;;
48002;SDS011;33768;48.578;11.574;2024-03-08T14:26:36;9.73;;;6.70;;
48002;SDS011;33768;48.578;11.574;2024-03-08T14:29:42;10.43;;;7.03;;
48002;SDS011;33768;48.578;11.574;2024-03-08T14:32:47;10.07;;;7.07;;
48002;SDS011;33768;48.578;11.574;2024-03-08T14:35:51;9.20;;;7.03;;
48002;SDS011;33768;48.578;11.574;2024-03-08T14:38:55;10.37;;;6.70;;
48002;SDS011;33768;48.578;11.574;2024-03-08T14:42:00;9.67;;;6.80;;
48002;SDS011;33768;48.578;11.574;2024-03-08T14:45:06;19.33;;;6.70;;
48002;SDS011;33768;48.578;11.574;2024-03-08T14:48:10;8.97;;;6.03;;
48002;SDS011;33768;48.578;11.574;2024-03-08T14:51:15;9.57;;;6.60;;
48002;SDS011;33768;48.578;11.574;2024-03-08T14:54:19;9.77;;;6.83;;
48002;SDS011;33768;48.578;11.574;2024-03-08T14:57:26;10.43;;;6.83;;
48002;SDS011;33768;48.578;11.574;2024-03-08T15:00:30;12.93;;;6.57;;
48002;SDS011;33768;48.578;11.574;2024-03-08T15:03:42;9.70;;;7.00;;
48002;SDS011;33768;48.578;11.574;2024-03-08T15:06:49;12.30;;;7.07;;
48002;SDS011;33768;48.578;11.574;2024-03-08T15:09:53;11.13;;;6.97;;
48002;SDS011;33768;48.578;11.574;2024-03-08T15:12:59;9.80;;;6.93;;
48002;SDS011;33768;48.578;11.574;2024-03-08T15:16:04;7.03;;;5.60;;
48002;SDS011;33768;48.578;11.574;2024-03-08T15:19:12;9.27;;;5.50;;
48002;SDS011;33768;48.578;11.574;2024-03-08T15:22:18;8.57;;;6.00;;
48002;SDS011;33768;48.578;11.574;2024-03-08T15:25:22;7.07;;;5.60;;
48002;SDS011;33768;48.578;11.574;2024-03-08T15:28:29;9.30;;;6.17;;
48002;SDS011;33768;48.578;11.574;2024-03-08T15:31:40;8.40;;;6.20;;
48002;SDS011;33768;48.578;11.574;2024-03-08T15:34:47;6.57;;;5.17;;
48002;SDS011;33768;48.578;11.574;2024-03-08T15:37:52;9.10;;;5.80;;
48002;SDS011;33768;48.578;11.574;2024-03-08T15:40:58;10.07;;;5.90;;
48002;SDS011;33768;48.578;11.574;2024-03-08T15:44:02;7.43;;;5.10;;
48002;SDS011;33768;48.578;11.574;2024-03-08T15:47:06;9.03;;;5.67;;
48002;SDS011;33768;48.578;11.574;2024-03-08T15:50:11;7.13;;;5.13;;
48002;SDS011;33768;48.578;11.574;2024-03-08T15:53:15;8.37;;;5.57;;
48002;SDS011;33768;48.578;11.574;2024-03-08T15:56:20;11.47;;;6.50;;
48002;SDS011;33768;48.578;11.574;2024-03-08T15:59:28;10.60;;;6.30;;
48002;SDS011;33768;48.578;11.574;2024-03-08T16:02:33;8.87;;;6.30;;
48002;SDS011;33768;48.578;11.574;2024-03-08T16:05:37;9.40;;;6.43;;
48002;SDS011;33768;48.578;11.574;2024-03-08T16:08:44;8.80;;;6.30;;
48002;SDS011;33768;48.578;11.574;2024-03-08T16:11:49;8.63;;;6.10;;
48002;SDS011;33768;48.578;11.574;2024-03-08T16:14:53;9.47;;;6.57;;
48002;SDS011;33768;48.578;11.574;2024-03-08T16:17:57;10.50;;;6.73;;
48002;SDS011;33768;48.578;11.574;2024-03-08T16:21:01;9.97;;;7.20;;
48002;SDS011;33768;48.578;11.574;2024-03-08T16:24:08;10.20;;;6.77;;
48002;SDS011;33768;48.578;11.574;2024-03-08T16:27:13;13.40;;;8.53;;
48002;SDS011;33768;48.578;11.574;2024-03-08T16:30:18;12.83;;;7.90;;
48002;SDS011;33768;48.578;11.574;2024-03-08T16:33:24;10.27;;;7.20;;
48002;SDS011;33768;48.578;11.574;2024-03-08T16:36:28;13.90;;;8.13;;
48002;SDS011;33768;48.578;11.574;2024-03-08T16:39:32;9.87;;;7.17;;
48002;SDS011;33768;48.578;11.574;2024-03-08T16:42:36;11.00;;;8.00;;
48002;SDS011;33768;48.578;11.574;2024-03-08T16:45:43;13.23;;;8.60;;
48002;SDS011;33768;48.578;11.574;2024-03-08T16:48:47;11.93;;;7.40;;
48002;SDS011;33768;48.578;11.574;2024-03-08T16:51:51;13.37;;;7.47;;
48002;SDS011;33768;48.578;11.574;2024-03-08T16:55:04;16.87;;;9.30;;
48002;SDS011;33768;48.578;11.574;2024-03-08T16:58:17;12.00;;;7.63;;
48002;SDS011;33768;48.578;11.574;2024-03-08T17:01:22;11.03;;;7.13;;
48002;SDS011;33768;48.578;11.574;2024-03-08T17:04:27;11.80;;;7.23;;
48002;SDS011;33768;48.578;11.574;2024-03-08T17:07:31;12.33;;;7.47;;
48002;SDS011;33768;48.578;11.574;2024-03-08T17:10:36;14.27;;;8.07;;
48002;SDS011;33768;48.578;11.574;2024-03-08T17:13:41;14.33;;;8.40;;
48002;SDS011;33768;48.578;11.574;2024-03-08T17:16:46;11.80;;;7.23;;
48002;SDS011;33768;48.578;11.574;2024-03-08T17:19:50;11.13;;;6.93;;
48002;SDS011;33768;48.578;11.574;2024-03-08T17:22:55;11.10;;;7.30;;
48002;SDS011;33768;48.578;11.574;2024-03-08T17:26:00;9.23;;;6.50;;
48002;SDS011;33768;48.578;11.574;2024-03-08T17:29:04;10.43;;;6.93;;
48002;SDS011;33768;48.578;11.574;2024-03-08T17:32:08;9.97;;;5.97;;
48002;SDS011;33768;48.578;11.574;2024-03-08T17:35:12;9.37;;;6.87;;
48002;SDS011;33768;48.578;11.574;2024-03-08T17:38:19;10.23;;;6.40;;
48002;SDS011;33768;48.578;11.574;2024-03-08T17:41:25;8.73;;;6.07;;
48002;SDS011;33768;48.578;11.574;2024-03-08T17:44:30;10.80;;;7.27;;
48002;SDS011;33768;48.578;11.574;2024-03-08T17:47:35;11.40;;;6.23;;
48002;SDS011;33768;48.578;11.574;2024-03-08T17:50:42;11.57;;;6.07;;
48002;SDS011;33768;48.578;11.574;2024-03-08T17:53:48;9.20;;;6.10;;
48002;SDS011;33768;48.578;11.574;2024-03-08T17:56:54;8.67;;;5.57;;